createdAt,value
2022-10-23T00:01:31.816Z,79.90
2022-10-23T00:04:01.649Z,79.90
2022-10-23T00:06:30.440Z,79.90
2022-10-23T00:08:57.425Z,80.00
2022-10-23T00:11:26.668Z,79.90
2022-10-23T00:13:59.446Z,79.90
2022-10-23T00:16:27.224Z,79.80
2022-10-23T00:18:54.105Z,80.00
2022-10-23T00:21:21.469Z,79.90
2022-10-23T00:23:48.435Z,80.00
2022-10-23T00:26:16.117Z,80.00
2022-10-23T00:28:49.244Z,80.10
2022-10-23T00:31:16.505Z,80.10
2022-10-23T00:33:44.118Z,80.10
2022-10-23T00:36:13.535Z,80.10
2022-10-23T00:38:40.869Z,80.10
2022-10-23T00:41:09.546Z,80.10
2022-10-23T00:43:58.261Z,80.00
2022-10-23T00:46:25.304Z,80.00
2022-10-23T00:48:52.361Z,80.10
2022-10-23T00:51:19.709Z,80.20
2022-10-23T00:54:01.316Z,80.10
2022-10-23T00:56:43.708Z,80.30
2022-10-23T00:59:10.967Z,80.20
2022-10-23T01:01:38.003Z,80.10
2022-10-23T01:04:07.360Z,80.20
2022-10-23T01:06:36.963Z,80.20
2022-10-23T01:09:12.841Z,80.30
2022-10-23T01:11:47.333Z,80.10
2022-10-23T01:14:32.363Z,80.20
2022-10-23T01:17:30.655Z,80.10
2022-10-23T01:20:12.433Z,80.20
2022-10-23T01:23:16.881Z,80.30
2022-10-23T01:26:11.118Z,80.10
2022-10-23T01:28:52.025Z,80.20
2022-10-23T01:31:28.176Z,80.30
2022-10-23T01:34:00.744Z,80.30
2022-10-23T01:36:30.232Z,80.40
2022-10-23T01:39:07.084Z,80.40
2022-10-23T01:41:44.412Z,80.40
2022-10-23T01:44:41.834Z,80.50
2022-10-23T01:47:11.679Z,80.70
2022-10-23T01:49:41.120Z,80.50
2022-10-23T01:52:11.706Z,80.60
2022-10-23T01:54:41.654Z,80.60
2022-10-23T01:57:13.152Z,80.70
2022-10-23T01:59:45.501Z,80.70
2022-10-23T02:02:14.763Z,80.70
2022-10-23T02:05:00.576Z,80.70
2022-10-23T02:07:27.441Z,80.90
2022-10-23T02:09:54.443Z,80.80
2022-10-23T02:12:36.691Z,80.70
2022-10-23T02:15:25.601Z,80.80
2022-10-23T02:18:13.464Z,80.70
2022-10-23T02:23:25.668Z,80.70
2022-10-23T02:26:03.193Z,80.70
2022-10-23T02:28:38.535Z,80.60
2022-10-23T02:31:08.698Z,80.70
2022-10-23T02:33:36.794Z,80.70
2022-10-23T02:36:04.052Z,80.70
2022-10-23T02:38:40.499Z,80.70
2022-10-23T02:41:25.270Z,80.60
2022-10-23T02:43:57.912Z,80.60
2022-10-23T02:46:58.800Z,80.80
2022-10-23T02:49:49.031Z,80.80
2022-10-23T02:52:34.005Z,80.80
2022-10-23T02:55:19.183Z,80.70
2022-10-23T02:58:12.628Z,80.90
2022-10-23T03:00:43.922Z,80.80
2022-10-23T03:03:18.278Z,80.80
2022-10-23T03:05:45.656Z,80.80
2022-10-23T03:08:14.186Z,80.90
2022-10-23T03:10:42.355Z,80.80
2022-10-23T03:13:10.645Z,80.70
2022-10-23T03:15:37.505Z,80.80
2022-10-23T03:18:04.653Z,80.90
2022-10-23T03:20:31.528Z,80.90
2022-10-23T03:22:58.467Z,80.80
2022-10-23T03:25:25.315Z,80.90
2022-10-23T03:27:52.160Z,80.80
2022-10-23T03:30:19.621Z,80.90
2022-10-23T03:32:46.559Z,80.70
2022-10-23T03:35:13.571Z,80.70
2022-10-23T03:37:40.740Z,81.50
2022-10-23T03:40:08.579Z,80.80
2022-10-23T03:42:35.463Z,80.80
2022-10-23T03:45:02.487Z,80.90
2022-10-23T03:47:30.579Z,80.70
2022-10-23T03:49:57.610Z,80.90
2022-10-23T03:54:56.212Z,80.70
2022-10-23T03:57:24.335Z,80.70
2022-10-23T03:59:51.385Z,80.80
2022-10-23T04:02:18.753Z,80.90
2022-10-23T04:04:45.623Z,80.90
2022-10-23T04:07:12.692Z,80.90
2022-10-23T04:09:39.488Z,80.90
2022-10-23T04:12:07.167Z,80.80
2022-10-23T04:14:34.021Z,80.90
2022-10-23T04:17:00.922Z,80.90
2022-10-23T04:19:27.847Z,80.90
2022-10-23T04:21:54.712Z,80.90
2022-10-23T04:24:21.568Z,81.00
2022-10-23T04:26:48.392Z,80.80
2022-10-23T04:29:15.250Z,80.90
2022-10-23T04:31:42.153Z,81.10
2022-10-23T04:34:09.009Z,80.90
2022-10-23T04:36:36.058Z,80.80
2022-10-23T04:39:03.130Z,80.90
2022-10-23T04:41:30.042Z,80.90
2022-10-23T04:43:56.873Z,80.90
2022-10-23T04:46:23.927Z,80.80
2022-10-23T04:48:50.814Z,80.80
2022-10-23T04:51:17.761Z,80.70
2022-10-23T04:53:44.686Z,80.70
2022-10-23T04:56:15.111Z,80.90
2022-10-23T04:58:42.604Z,80.90
2022-10-23T05:01:10.928Z,80.90
2022-10-23T05:03:38.463Z,80.90
2022-10-23T05:06:05.926Z,80.90
2022-10-23T05:08:33.128Z,80.90
2022-10-23T05:11:00.096Z,80.90
2022-10-23T05:13:26.960Z,80.90
2022-10-23T05:15:54.093Z,80.90
2022-10-23T05:18:35.795Z,80.90
2022-10-23T05:21:26.469Z,80.90
2022-10-23T05:23:54.978Z,80.90
2022-10-23T05:26:22.546Z,80.90
2022-10-23T05:28:49.927Z,80.90
2022-10-23T05:31:18.445Z,80.90
2022-10-23T05:33:45.301Z,80.90
2022-10-23T05:36:16.099Z,80.90
2022-10-23T05:38:43.269Z,80.90
2022-10-23T05:41:10.384Z,81.00
2022-10-23T05:43:37.294Z,80.90
2022-10-23T05:46:07.653Z,80.90
2022-10-23T05:48:35.499Z,80.90
2022-10-23T05:51:04.619Z,80.80
2022-10-23T05:53:31.435Z,80.90
2022-10-23T05:56:07.478Z,81.00
2022-10-23T05:58:34.816Z,80.90
2022-10-23T06:01:09.643Z,80.90
2022-10-23T06:03:37.671Z,80.90
2022-10-23T06:06:05.849Z,80.90
2022-10-23T06:08:34.032Z,80.90
2022-10-23T06:11:10.693Z,81.00
2022-10-23T06:13:38.074Z,80.90
2022-10-23T06:16:19.435Z,81.60
2022-10-23T06:18:47.295Z,81.00
2022-10-23T06:21:15.084Z,81.00
2022-10-23T06:23:43.421Z,81.00
2022-10-23T06:26:12.645Z,81.00
2022-10-23T06:28:40.392Z,81.00
2022-10-23T06:31:08.927Z,81.00
2022-10-23T06:33:36.143Z,81.00
2022-10-23T06:36:04.132Z,81.10
2022-10-23T06:38:36.844Z,81.00
2022-10-23T06:41:05.124Z,81.10
2022-10-23T06:43:32.208Z,81.10
2022-10-23T06:46:03.633Z,81.10
2022-10-23T06:48:31.348Z,81.10
2022-10-23T06:50:58.811Z,81.10
2022-10-23T06:53:25.755Z,81.00
2022-10-23T06:55:55.316Z,81.60
2022-10-23T06:58:22.551Z,80.90
2022-10-23T07:00:49.419Z,81.10
2022-10-23T07:03:16.283Z,81.70
2022-10-23T07:05:45.027Z,80.90
2022-10-23T07:08:11.951Z,80.60
2022-10-23T07:10:39.231Z,80.70
2022-10-23T07:13:06.134Z,80.80
2022-10-23T07:15:33.053Z,81.20
2022-10-23T07:17:59.959Z,81.00
2022-10-23T07:20:27.174Z,81.00
2022-10-23T07:22:55.938Z,80.60
2022-10-23T07:25:24.450Z,80.50
2022-10-23T07:27:51.393Z,80.70
2022-10-23T07:30:18.769Z,80.90
2022-10-23T07:32:45.777Z,81.30
2022-10-23T07:37:45.259Z,80.80
2022-10-23T07:40:12.566Z,80.90
2022-10-23T07:42:39.618Z,81.00
2022-10-23T07:45:08.798Z,81.00
2022-10-23T07:47:35.706Z,81.00
2022-10-23T07:50:02.809Z,81.00
2022-10-23T07:52:32.111Z,81.10
2022-10-23T07:55:02.438Z,81.10
2022-10-23T07:57:30.005Z,81.10
2022-10-23T07:59:56.931Z,81.20
2022-10-23T08:02:23.793Z,81.20
2022-10-23T08:04:50.916Z,81.20
2022-10-23T08:07:17.853Z,81.20
2022-10-23T08:09:44.683Z,81.20
2022-10-23T08:12:11.585Z,81.20
2022-10-23T08:14:39.041Z,81.20
2022-10-23T08:17:09.708Z,81.20
2022-10-23T08:19:37.055Z,81.30
2022-10-23T08:22:04.101Z,81.40
2022-10-23T08:24:31.012Z,81.30
2022-10-23T08:26:58.765Z,81.40
2022-10-23T08:29:25.700Z,81.70
2022-10-23T08:31:56.048Z,81.60
2022-10-23T08:34:23.499Z,81.50
2022-10-23T08:36:50.957Z,81.50
2022-10-23T08:39:17.798Z,81.50
2022-10-23T08:41:50.724Z,81.60
2022-10-23T08:44:36.642Z,81.60
2022-10-23T08:47:15.710Z,81.60
2022-10-23T08:50:00.555Z,81.50
2022-10-23T08:52:52.417Z,82.80
2022-10-23T08:55:30.131Z,83.80
2022-10-23T08:58:16.196Z,83.00
2022-10-23T09:00:44.837Z,84.00
2022-10-23T09:03:12.928Z,82.80
2022-10-23T09:06:20.173Z,82.30
2022-10-23T09:09:05.138Z,82.30
2022-10-23T09:11:57.585Z,82.50
2022-10-23T09:14:55.267Z,82.20
2022-10-23T09:17:31.589Z,82.00
2022-10-23T09:20:19.536Z,81.90
2022-10-23T09:22:48.251Z,81.70
2022-10-23T09:25:21.585Z,81.60
2022-10-23T09:27:53.302Z,81.50
2022-10-23T09:30:38.068Z,81.80
2022-10-23T09:33:26.313Z,82.10
2022-10-23T09:35:53.249Z,81.80
2022-10-23T09:38:48.385Z,81.70
2022-10-23T09:41:34.792Z,81.80
2022-10-23T09:44:07.628Z,81.70
2022-10-23T09:46:42.398Z,81.70
2022-10-23T09:49:32.340Z,81.80
2022-10-23T09:52:02.780Z,81.80
2022-10-23T09:54:33.565Z,81.80
2022-10-23T09:57:14.970Z,81.80
2022-10-23T09:59:42.998Z,81.80
2022-10-23T10:02:33.685Z,81.80
2022-10-23T10:05:20.626Z,81.80
2022-10-23T10:08:06.032Z,81.80
2022-10-23T10:10:39.634Z,81.90
2022-10-23T10:13:37.736Z,81.90
2022-10-23T10:16:24.884Z,81.80
2022-10-23T10:19:03.464Z,81.80
2022-10-23T10:21:44.959Z,81.80
2022-10-23T10:24:23.691Z,81.60
2022-10-23T10:27:30.164Z,81.70
2022-10-23T10:30:14.784Z,81.90
2022-10-23T10:32:44.679Z,81.80
2022-10-23T10:35:17.334Z,81.50
2022-10-23T10:37:53.264Z,81.60
2022-10-23T10:40:29.902Z,81.40
2022-10-23T10:43:26.912Z,81.50
2022-10-23T10:46:20.216Z,81.60
2022-10-23T10:49:00.262Z,81.60
2022-10-23T10:51:30.244Z,81.50
2022-10-23T10:54:07.941Z,81.60
2022-10-23T10:56:40.956Z,81.70
2022-10-23T10:59:32.120Z,81.60
2022-10-23T11:02:27.413Z,81.50
2022-10-23T11:05:16.580Z,81.50
2022-10-23T11:07:59.815Z,81.50
2022-10-23T11:10:27.814Z,81.30
2022-10-23T11:12:56.092Z,81.40
2022-10-23T11:15:35.383Z,81.30
2022-10-23T11:18:06.608Z,81.30
2022-10-23T11:20:58.078Z,81.20
2022-10-23T11:23:49.622Z,81.00
2022-10-23T11:26:37.816Z,81.00
2022-10-23T11:29:25.964Z,81.00
2022-10-23T11:32:05.603Z,81.00
2022-10-23T11:34:47.471Z,81.10
2022-10-23T11:37:19.384Z,81.20
2022-10-23T11:40:21.444Z,81.20
2022-10-23T11:42:50.488Z,81.20
2022-10-23T11:45:40.746Z,81.20
2022-10-23T11:48:37.347Z,81.20
2022-10-23T11:51:05.230Z,81.30
2022-10-23T11:53:32.431Z,80.60
2022-10-23T11:56:17.119Z,80.90
2022-10-23T11:58:47.977Z,80.60
2022-10-23T12:01:41.669Z,80.70
2022-10-23T12:04:14.822Z,80.80
2022-10-23T12:06:42.962Z,80.90
2022-10-23T12:09:23.180Z,80.90
2022-10-23T12:12:07.677Z,81.10
2022-10-23T12:14:42.893Z,81.00
2022-10-23T12:17:24.678Z,82.00
2022-10-23T12:20:08.258Z,82.10
2022-10-23T12:23:00.566Z,81.20
2022-10-23T12:25:58.261Z,81.10
2022-10-23T12:28:41.144Z,81.40
2022-10-23T12:31:23.213Z,81.70
2022-10-23T12:34:17.887Z,81.80
2022-10-23T12:37:13.636Z,81.80
2022-10-23T12:39:40.919Z,81.80
2022-10-23T12:42:27.075Z,81.70
2022-10-23T12:45:05.698Z,81.70
2022-10-23T12:47:33.046Z,81.60
2022-10-23T12:50:00.218Z,81.60
2022-10-23T12:52:27.094Z,81.50
2022-10-23T12:54:53.974Z,81.50
2022-10-23T12:57:26.522Z,81.60
2022-10-23T13:00:11.013Z,81.50
2022-10-23T13:02:38.414Z,81.50
2022-10-23T13:05:12.900Z,81.50
2022-10-23T13:07:45.582Z,81.60
2022-10-23T13:10:18.712Z,81.60
2022-10-23T13:12:55.204Z,81.60
2022-10-23T13:15:23.622Z,81.60
2022-10-23T13:17:53.699Z,81.60
2022-10-23T13:20:26.595Z,81.70
2022-10-23T13:23:26.607Z,81.60
2022-10-23T13:25:56.365Z,81.60
2022-10-23T13:28:29.420Z,81.60
2022-10-23T13:31:02.282Z,81.70
2022-10-23T13:33:39.395Z,81.80
2022-10-23T13:36:22.306Z,81.60
2022-10-23T13:39:14.810Z,82.10
2022-10-23T13:41:47.779Z,81.80
2022-10-23T13:44:17.503Z,81.40
2022-10-23T13:46:44.517Z,81.40
2022-10-23T13:49:11.634Z,81.40
2022-10-23T13:51:47.506Z,81.40
2022-10-23T13:54:18.416Z,81.30
2022-10-23T13:56:45.967Z,81.40
2022-10-23T13:59:13.724Z,81.40
2022-10-23T14:01:41.218Z,81.40
2022-10-23T14:04:09.110Z,81.40
2022-10-23T14:06:37.616Z,81.30
2022-10-23T14:09:10.591Z,81.30
2022-10-23T14:11:37.538Z,81.40
2022-10-23T14:14:04.479Z,82.00
2022-10-23T14:16:31.439Z,81.30
2022-10-23T14:18:58.610Z,81.30
2022-10-23T14:21:25.865Z,81.20
2022-10-23T14:23:54.353Z,81.30
2022-10-23T14:26:27.673Z,81.30
2022-10-23T14:28:59.351Z,81.30
2022-10-23T14:31:29.532Z,81.20
2022-10-23T14:34:00.728Z,81.40
2022-10-23T14:36:38.332Z,81.30
2022-10-23T14:39:15.888Z,81.30
2022-10-23T14:41:42.803Z,81.30
2022-10-23T14:44:09.685Z,81.60
2022-10-23T14:46:38.578Z,81.80
2022-10-23T14:49:06.918Z,81.80
2022-10-23T14:51:33.846Z,81.60
2022-10-23T14:54:05.351Z,81.20
2022-10-23T14:56:36.142Z,81.40
2022-10-23T14:59:03.727Z,81.50
2022-10-23T15:01:32.677Z,81.30
2022-10-23T15:03:59.759Z,81.30
2022-10-23T15:06:27.020Z,81.10
2022-10-23T15:08:57.333Z,81.70
2022-10-23T15:11:26.048Z,81.20
2022-10-23T15:13:54.872Z,81.50
2022-10-23T15:16:23.195Z,81.30
2022-10-23T15:18:50.490Z,81.90
2022-10-23T15:21:17.712Z,82.00
2022-10-23T15:23:45.853Z,81.90
2022-10-23T15:26:20.879Z,82.50
2022-10-23T15:28:53.316Z,82.70
2022-10-23T15:31:37.636Z,82.90
2022-10-23T15:34:05.585Z,83.10
2022-10-23T15:36:32.776Z,82.70
2022-10-23T15:39:00.658Z,83.10
2022-10-23T15:41:32.954Z,82.40
2022-10-23T15:44:01.159Z,82.90
2022-10-23T15:46:29.152Z,83.30
2022-10-23T15:48:56.036Z,82.80
2022-10-23T15:51:23.063Z,82.60
2022-10-23T15:53:49.995Z,82.80
2022-10-23T15:56:17.039Z,82.70
2022-10-23T15:58:45.634Z,82.40
2022-10-23T16:01:12.675Z,82.10
2022-10-23T16:03:39.610Z,82.10
2022-10-23T16:06:09.164Z,82.10
2022-10-23T16:08:36.628Z,81.80
2022-10-23T16:11:04.767Z,81.90
2022-10-23T16:13:31.607Z,82.00
2022-10-23T16:16:03.717Z,81.70
2022-10-23T16:18:30.650Z,81.80
2022-10-23T16:20:57.583Z,81.80
2022-10-23T16:23:24.565Z,81.90
2022-10-23T16:25:51.478Z,81.90
2022-10-23T16:28:18.394Z,81.90
2022-10-23T16:30:46.366Z,82.00
2022-10-23T16:33:13.449Z,81.80
2022-10-23T16:35:40.412Z,81.90
2022-10-23T16:38:07.315Z,81.90
2022-10-23T16:40:34.219Z,81.80
2022-10-23T16:43:01.116Z,81.80
2022-10-23T16:45:28.122Z,81.80
2022-10-23T16:47:55.743Z,81.80
2022-10-23T16:50:23.319Z,81.90
2022-10-23T16:52:52.095Z,81.80
2022-10-23T16:55:22.345Z,81.80
2022-10-23T16:57:49.255Z,82.00
2022-10-23T17:00:22.065Z,81.90
2022-10-23T17:02:48.976Z,82.50
2022-10-23T17:05:16.014Z,81.80
2022-10-23T17:07:43.381Z,81.90
2022-10-23T17:10:10.567Z,81.80
2022-10-23T17:12:37.657Z,81.90
2022-10-23T17:15:05.181Z,81.90
2022-10-23T17:17:32.107Z,81.90
2022-10-23T17:19:58.999Z,82.00
2022-10-23T17:22:25.978Z,81.90
2022-10-23T17:24:53.884Z,82.10
2022-10-23T17:27:21.377Z,82.10
2022-10-23T17:29:48.297Z,82.00
2022-10-23T17:32:15.313Z,82.00
2022-10-23T17:34:43.931Z,82.10
2022-10-23T17:37:13.354Z,82.10
2022-10-23T17:39:41.406Z,82.10
2022-10-23T17:42:08.398Z,82.00
2022-10-23T17:44:36.227Z,82.00
2022-10-23T17:47:03.134Z,82.00
2022-10-23T17:49:30.077Z,82.00
2022-10-23T17:51:58.050Z,82.00
2022-10-23T17:54:26.793Z,82.00
2022-10-23T17:56:53.679Z,81.90
2022-10-23T17:59:20.741Z,81.90
2022-10-23T18:01:48.732Z,81.90
2022-10-23T18:04:18.092Z,81.90
2022-10-23T18:06:50.602Z,81.80
2022-10-23T18:09:18.129Z,81.80
2022-10-23T18:11:48.167Z,81.80
2022-10-23T18:14:17.708Z,81.80
2022-10-23T18:16:46.097Z,81.80
2022-10-23T18:19:14.608Z,81.70
2022-10-23T18:21:41.498Z,81.70
2022-10-23T18:24:08.672Z,81.80
2022-10-23T18:26:37.804Z,81.80
2022-10-23T18:29:07.823Z,81.80
2022-10-23T18:31:37.490Z,81.80
2022-10-23T18:34:24.549Z,81.80
2022-10-23T18:36:53.665Z,81.70
2022-10-23T18:39:24.246Z,81.80
2022-10-23T18:41:55.031Z,82.30
2022-10-23T18:44:23.062Z,82.10
2022-10-23T18:46:51.276Z,82.10
2022-10-23T18:49:19.700Z,83.30
2022-10-23T18:51:47.018Z,82.60
2022-10-23T18:54:16.029Z,83.30
2022-10-23T18:56:43.952Z,82.00
2022-10-23T18:59:13.860Z,82.10
2022-10-23T19:01:41.584Z,82.10
2022-10-23T19:04:08.948Z,82.20
2022-10-23T19:06:37.877Z,83.40
2022-10-23T19:09:09.561Z,82.30
2022-10-23T19:11:37.471Z,82.30
2022-10-23T19:14:05.818Z,82.30
2022-10-23T19:17:03.878Z,82.50
2022-10-23T19:19:35.005Z,82.60
2022-10-23T19:22:03.916Z,82.60
2022-10-23T19:24:51.182Z,83.50
2022-10-23T19:27:19.453Z,83.00
2022-10-23T19:29:49.426Z,82.70
2022-10-23T19:32:16.302Z,82.70
2022-10-23T19:34:44.117Z,82.50
2022-10-23T19:37:11.080Z,82.70
2022-10-23T19:39:38.580Z,82.60
2022-10-23T19:42:06.014Z,82.50
2022-10-23T19:44:32.936Z,82.90
2022-10-23T19:46:59.841Z,83.70
2022-10-23T19:49:26.816Z,83.90
2022-10-23T19:51:53.678Z,83.70
2022-10-23T19:54:21.641Z,83.60
2022-10-23T19:56:49.619Z,83.90
2022-10-23T19:59:17.337Z,83.80
2022-10-23T20:01:47.770Z,83.80
2022-10-23T20:04:17.483Z,83.90
2022-10-23T20:06:44.347Z,84.10
2022-10-23T20:09:11.470Z,84.20
2022-10-23T20:11:40.346Z,84.30
2022-10-23T20:14:07.966Z,84.40
2022-10-23T20:16:38.132Z,84.60
2022-10-23T20:19:08.139Z,84.50
2022-10-23T20:21:36.629Z,84.60
2022-10-23T20:24:04.025Z,84.70
2022-10-23T20:26:30.900Z,84.80
2022-10-23T20:28:58.386Z,84.70
2022-10-23T20:31:26.643Z,84.90
2022-10-23T20:33:54.658Z,84.90
2022-10-23T20:36:35.657Z,85.10
2022-10-23T20:39:06.146Z,85.10
2022-10-23T20:41:37.034Z,85.20
2022-10-23T20:44:06.326Z,85.10
2022-10-23T20:46:33.327Z,85.40
2022-10-23T20:49:00.346Z,84.70
2022-10-23T20:51:27.259Z,85.50
2022-10-23T20:53:54.810Z,85.80
2022-10-23T20:56:30.051Z,85.80
2022-10-23T20:59:26.557Z,86.00
2022-10-23T21:01:55.589Z,85.80
2022-10-23T21:04:26.598Z,86.00
2022-10-23T21:07:11.648Z,86.00
2022-10-23T21:09:39.969Z,85.70
2022-10-23T21:12:07.398Z,84.00
2022-10-23T21:14:34.898Z,84.70
2022-10-23T21:17:02.026Z,83.70
2022-10-23T21:19:29.071Z,82.60
2022-10-23T21:21:55.952Z,82.60
2022-10-23T21:24:24.141Z,80.50
2022-10-23T21:26:51.229Z,80.50
2022-10-23T21:29:19.364Z,81.30
2022-10-23T21:31:52.872Z,81.00
2022-10-23T21:34:19.753Z,81.10
2022-10-23T21:37:12.342Z,81.10
2022-10-23T21:39:34.415Z,81.30
2022-10-23T21:42:01.409Z,81.40
2022-10-23T21:44:28.304Z,81.50
2022-10-23T21:46:55.437Z,81.60
2022-10-23T21:49:22.402Z,81.60
2022-10-23T21:51:49.310Z,81.60
2022-10-23T21:54:16.195Z,81.70
2022-10-23T21:56:48.827Z,81.70
2022-10-23T21:59:19.309Z,81.80
2022-10-23T22:01:47.826Z,81.90
2022-10-23T22:04:17.439Z,81.90
2022-10-23T22:06:45.422Z,82.00
2022-10-23T22:09:14.994Z,82.00
2022-10-23T22:11:42.356Z,82.00
2022-10-23T22:14:09.196Z,82.00
2022-10-23T22:16:36.123Z,82.70
2022-10-23T22:19:03.408Z,82.10
2022-10-23T22:21:31.437Z,82.10
2022-10-23T22:24:00.285Z,82.10
2022-10-23T22:26:38.398Z,82.10
2022-10-23T22:29:08.002Z,82.20
2022-10-23T22:31:36.251Z,82.30
2022-10-23T22:34:18.483Z,82.30
2022-10-23T22:36:53.361Z,82.40
2022-10-23T22:39:20.509Z,82.30
2022-10-23T22:41:47.944Z,82.30
2022-10-23T22:44:15.653Z,82.30
2022-10-23T22:46:43.297Z,82.30
2022-10-23T22:49:10.615Z,82.20
2022-10-23T22:51:39.769Z,82.90
2022-10-23T22:54:07.408Z,82.20
2022-10-23T22:56:35.222Z,82.20
2022-10-23T22:59:03.265Z,82.20
2022-10-23T23:01:40.572Z,82.20
2022-10-23T23:04:26.037Z,82.20
2022-10-23T23:06:54.791Z,82.30
2022-10-23T23:09:21.787Z,82.20
2022-10-23T23:11:52.714Z,82.20
2022-10-23T23:14:23.615Z,82.20
2022-10-23T23:16:52.488Z,82.30
2022-10-23T23:19:19.737Z,82.30
2022-10-23T23:21:46.709Z,82.30
2022-10-23T23:24:13.723Z,82.30
2022-10-23T23:26:40.949Z,82.40
2022-10-23T23:29:08.164Z,82.30
2022-10-23T23:31:35.064Z,82.30
2022-10-23T23:34:02.089Z,82.30
2022-10-23T23:36:29.137Z,82.40
2022-10-23T23:38:57.411Z,82.40
2022-10-23T23:41:25.900Z,82.40
2022-10-23T23:43:54.795Z,82.40
2022-10-23T23:46:21.776Z,82.40
2022-10-23T23:48:49.738Z,82.40
2022-10-23T23:51:19.095Z,82.40
2022-10-23T23:53:46.604Z,82.40
2022-10-23T23:56:14.215Z,82.40
2022-10-23T23:58:41.500Z,82.40
